createdAt,value
2019-04-21T00:03:40.209Z,101959.48
2019-04-21T00:09:58.284Z,101953.36
2019-04-21T00:15:53.990Z,101946.73
2019-04-21T00:22:07.695Z,101943.22
2019-04-21T00:28:30.329Z,101936.62
2019-04-21T00:34:13.274Z,101932.23
2019-04-21T00:40:41.485Z,101928.32
2019-04-21T00:46:44.636Z,101915.94
2019-04-21T00:53:32.047Z,101915.52
2019-04-21T00:59:34.407Z,101911.13
2019-04-21T01:05:43.949Z,101907.61
2019-04-21T01:11:44.453Z,101901.44
2019-04-21T01:17:53.259Z,101889.07
2019-04-21T01:23:38.156Z,101886.91
2019-04-21T01:30:10.101Z,101878.95
2019-04-21T01:36:08.416Z,101894.85
2019-04-21T01:42:21.434Z,101890.91
2019-04-21T01:48:24.132Z,101898.39
2019-04-21T01:55:00.641Z,101891.34
2019-04-21T02:01:08.722Z,101897.07
2019-04-21T02:07:20.590Z,101893.52
2019-04-21T02:13:27.937Z,101882.82
2019-04-21T02:19:31.211Z,101886.63
2019-04-21T02:25:44.663Z,101894.44
2019-04-21T02:32:14.854Z,101883.37
2019-04-21T02:38:09.053Z,101894.72
2019-04-21T02:44:24.019Z,101897.23
2019-04-21T02:50:28.297Z,101890.58
2019-04-21T02:56:46.093Z,101877.44
2019-04-21T03:03:08.502Z,101869.35
2019-04-21T03:09:11.791Z,101859.22
2019-04-21T03:21:22.252Z,101842.25
2019-04-21T03:45:56.903Z,101817.61
2019-04-21T03:52:03.354Z,101810.83
2019-04-21T04:04:44.141Z,101800.84
2019-04-21T04:11:05.072Z,101791.62
2019-04-21T04:17:04.668Z,101810.16
2019-04-21T04:23:20.925Z,101804.78
2019-04-21T04:35:34.167Z,101793.27
2019-04-21T04:42:00.314Z,101785.61
2019-04-21T04:47:59.386Z,101783.45
2019-04-21T04:54:07.236Z,101790.17
2019-04-21T05:00:19.789Z,101786.00
2019-04-21T05:06:42.138Z,101772.82
2019-04-21T05:12:36.473Z,101771.98
2019-04-21T05:19:00.748Z,101771.42
2019-04-21T05:24:44.274Z,101767.66
2019-04-21T05:31:06.657Z,101763.27
2019-04-21T05:37:21.734Z,101760.56
2019-04-21T05:43:32.582Z,101760.70
2019-04-21T05:49:38.291Z,101753.52
2019-04-21T05:55:56.934Z,101756.91
2019-04-21T06:02:07.448Z,101761.55
2019-04-21T06:08:14.627Z,101757.22
2019-04-21T06:14:25.391Z,101753.52
2019-04-21T06:20:30.683Z,101750.66
2019-04-21T06:45:25.212Z,101741.36
2019-04-21T06:51:15.372Z,101735.75
2019-04-21T06:57:16.822Z,101736.25
2019-04-21T07:03:29.426Z,101727.48
2019-04-21T07:09:31.872Z,101728.44
2019-04-21T07:15:45.437Z,101727.53
2019-04-21T07:22:03.074Z,101712.45
2019-04-21T07:27:59.623Z,101716.34
2019-04-21T07:34:08.564Z,101711.38
2019-04-21T07:40:05.189Z,101712.12
2019-04-21T07:46:10.138Z,101699.97
2019-04-21T07:52:48.509Z,101692.20
2019-04-21T07:58:53.776Z,101690.17
2019-04-21T08:05:00.681Z,101684.52
2019-04-21T08:11:02.974Z,101674.44
2019-04-21T08:17:10.991Z,101669.38
2019-04-21T08:23:21.582Z,101664.16
2019-04-21T08:29:35.004Z,101658.19
2019-04-21T08:41:45.149Z,101652.55
2019-04-21T08:47:51.999Z,101642.48
2019-04-21T08:54:07.575Z,101639.51
2019-04-21T09:00:26.593Z,101642.71
2019-04-21T09:06:43.190Z,101629.61
2019-04-21T09:12:43.374Z,101617.19
2019-04-21T09:18:40.426Z,101617.89
2019-04-21T09:25:09.166Z,101612.06
2019-04-21T09:30:49.943Z,101595.53
2019-04-21T09:36:58.740Z,101594.99
2019-04-21T09:43:03.176Z,101582.28
2019-04-21T09:49:11.882Z,101577.86
2019-04-21T09:55:18.906Z,101575.59
2019-04-21T10:01:28.794Z,101568.66
2019-04-21T10:07:34.940Z,101562.25
2019-04-21T10:13:36.737Z,101555.05
2019-04-21T10:19:42.609Z,101545.80
2019-04-21T10:25:48.516Z,101537.14
2019-04-21T10:31:54.586Z,101521.14
2019-04-21T10:38:11.076Z,101505.98
2019-04-21T10:44:09.354Z,101497.41
2019-04-21T10:50:16.283Z,101493.98
2019-04-21T10:56:30.606Z,101481.97
2019-04-21T11:02:39.188Z,101473.17
2019-04-21T11:08:48.563Z,101466.98
2019-04-21T11:14:53.555Z,101459.80
2019-04-21T11:21:00.424Z,101441.37
2019-04-21T11:27:06.856Z,101438.94
2019-04-21T11:33:13.122Z,101435.97
2019-04-21T11:39:42.226Z,101423.34
2019-04-21T11:45:42.174Z,101423.03
2019-04-21T11:51:49.026Z,101413.98
2019-04-21T11:57:56.462Z,101413.05
2019-04-21T12:04:03.390Z,101401.50
2019-04-21T12:10:09.545Z,101396.06
2019-04-21T12:16:16.990Z,101385.26
2019-04-21T12:22:28.207Z,101371.64
2019-04-21T12:28:32.411Z,101362.55
2019-04-21T12:34:39.743Z,101346.49
2019-04-21T12:40:46.679Z,101343.67
2019-04-21T12:46:56.111Z,101332.82
2019-04-21T12:53:05.352Z,101331.69
2019-04-21T12:59:12.153Z,101325.53
2019-04-21T13:05:18.274Z,101313.03
2019-04-21T13:11:25.512Z,101310.19
2019-04-21T13:17:33.122Z,101297.30
2019-04-21T13:23:41.141Z,101279.97
2019-04-21T13:29:48.756Z,101264.09
2019-04-21T13:35:59.121Z,101260.83
2019-04-21T13:42:16.608Z,101251.44
2019-04-21T13:48:14.881Z,101241.36
2019-04-21T13:54:21.905Z,101219.96
2019-04-21T14:00:29.605Z,101218.00
2019-04-21T14:06:36.355Z,101215.33
2019-04-21T14:12:42.710Z,101192.99
2019-04-21T14:18:49.624Z,101186.08
2019-04-21T14:24:56.316Z,101176.01
2019-04-21T14:31:04.264Z,101165.42
2019-04-21T14:37:11.043Z,101161.16
2019-04-21T14:43:18.492Z,101152.83
2019-04-21T14:49:55.468Z,101143.03
2019-04-21T14:56:03.712Z,101146.86
2019-04-21T15:02:11.754Z,101140.06
2019-04-21T15:08:19.089Z,101125.63
2019-04-21T15:14:26.256Z,101118.48
2019-04-21T15:20:34.062Z,101120.42
2019-04-21T15:26:44.190Z,101108.59
2019-04-21T15:32:51.067Z,101101.73
2019-04-21T15:38:58.040Z,101081.49
2019-04-21T15:45:06.716Z,101077.27
2019-04-21T15:51:13.622Z,101069.83
2019-04-21T15:57:36.121Z,101063.44
2019-04-21T16:03:42.844Z,101055.66
2019-04-21T16:09:50.097Z,101057.67
2019-04-21T16:15:56.753Z,101050.80
2019-04-21T16:22:03.785Z,101043.17
2019-04-21T16:28:13.351Z,101038.08
2019-04-21T16:34:19.959Z,101039.52
2019-04-21T16:40:27.586Z,101037.25
2019-04-21T16:46:35.723Z,101024.47
2019-04-21T16:53:10.263Z,101019.97
2019-04-21T16:59:24.485Z,101005.36
2019-04-21T17:05:32.135Z,101009.87
2019-04-21T17:11:41.574Z,101005.84
2019-04-21T17:18:04.252Z,101002.85
2019-04-21T17:23:54.829Z,100991.42
2019-04-21T17:30:01.223Z,100992.58
2019-04-21T17:36:09.232Z,100983.23
2019-04-21T17:42:28.911Z,100983.78
2019-04-21T17:48:25.049Z,100981.74
2019-04-21T17:54:42.935Z,100978.51
2019-04-21T18:01:10.983Z,100977.44
2019-04-21T18:07:34.934Z,100980.36
2019-04-21T18:13:26.538Z,100986.52
2019-04-21T18:19:36.383Z,100991.69
2019-04-21T18:25:51.908Z,100995.71
2019-04-21T18:31:50.444Z,101005.33
2019-04-21T18:38:08.011Z,101009.97
2019-04-21T18:44:34.605Z,101004.17
2019-04-21T18:50:46.060Z,101006.05
2019-04-21T18:56:52.615Z,101003.27
2019-04-21T19:02:56.041Z,101003.52
2019-04-21T19:09:14.998Z,101007.98
2019-04-21T19:15:20.025Z,101006.56
2019-04-21T19:21:28.000Z,101001.16
2019-04-21T19:27:43.949Z,101013.82
2019-04-21T19:33:57.373Z,101010.45
2019-04-21T19:40:05.704Z,101005.74
2019-04-21T19:46:18.041Z,100998.63
2019-04-21T19:52:19.262Z,101000.38
2019-04-21T19:58:20.619Z,100989.19
2019-04-21T20:04:31.718Z,100991.56
2019-04-21T20:10:50.233Z,100987.84
2019-04-21T20:16:54.700Z,100979.37
2019-04-21T20:22:50.229Z,100967.02
2019-04-21T20:29:05.522Z,100959.94
2019-04-21T20:35:25.015Z,100955.81
2019-04-21T20:41:22.706Z,100950.89
2019-04-21T20:47:25.576Z,100952.70
2019-04-21T20:53:41.027Z,100950.38
2019-04-21T20:59:46.224Z,100945.00
2019-04-21T21:05:53.247Z,100940.98
2019-04-21T21:12:25.313Z,100940.55
2019-04-21T21:18:26.781Z,100935.99
2019-04-21T21:24:31.222Z,100937.00
2019-04-21T21:30:29.973Z,100937.14
2019-04-21T21:36:41.830Z,100938.75
2019-04-21T21:42:35.388Z,100929.22
2019-04-21T21:48:51.661Z,100926.29
2019-04-21T21:54:45.955Z,100927.54
2019-04-21T22:01:00.471Z,100919.75
2019-04-21T22:07:11.198Z,100919.30
2019-04-21T22:13:17.779Z,100925.28
2019-04-21T22:19:48.911Z,100917.21
2019-04-21T22:25:33.850Z,100914.05
2019-04-21T22:31:40.836Z,100920.83
2019-04-21T22:37:58.030Z,100920.20
2019-04-21T22:43:54.209Z,100918.43
2019-04-21T22:50:00.568Z,100921.20
2019-04-21T22:56:14.880Z,100919.60
2019-04-21T23:02:21.068Z,100911.48
2019-04-21T23:08:26.589Z,100911.55
2019-04-21T23:14:33.887Z,100909.67
2019-04-21T23:20:53.657Z,100907.48
2019-04-21T23:26:55.204Z,100905.52
2019-04-21T23:32:59.684Z,100901.25
2019-04-21T23:39:07.017Z,100897.37
2019-04-21T23:45:12.200Z,100894.84
2019-04-21T23:51:33.303Z,100883.80
2019-04-21T23:57:32.602Z,100879.97
